Terminal Aerodrome Forecast
Issued by NWS

Home | Current Version | Previous Version | Text Only | Print | Product List | Glossary Off
Versions: 1 2 3 4 5 6 7 8 9 10 11 12

000
FTUS43 KIWX 031126
TAFSBN
TAF
KSBN 031126Z 0312/0412 21006KT 6SM BR SCT120
      TEMPO 0312/0313 5SM BR
     FM031700 24008KT P6SM VCTS BKN040CB
     FM032300 23005KT P6SM VCSH BKN040
     FM040600 VRB03KT 6SM BR SCT040 BKN250=

USA.gov is the U.S. government's official web portal to all federal, state and local government web resources and services.